Time;durP1;ratioP1;P1;durP2;ratioP2;P2;SDS_P1;SDS_P2;PMS_P1;PMS_P2;Temp;Humidity;BMP_temperature;BMP_pressure;BME280_temperature;BME280_humidity;BME280_pressure;Samples;Min_cycle;Max_cycle;Signal;HPM_P1;HPM_P2
2021/06/01 00:01:50;;;;;;;3.83;2.60;;;;;;;12.43;60.18;93538.94;4978102;28;20041;-88
2021/06/01 00:04:17;;;;;;;2.78;2.53;;;;;;;12.44;60.30;93533.34;4965128;28;20018;-88
2021/06/01 00:06:43;;;;;;;2.78;2.55;;;;;;;12.48;59.90;93538.81;4976687;28;20049;-88
2021/06/01 00:09:16;;;;;;;3.13;2.83;;;;;;;12.49;59.27;93524.47;4967747;28;20488;-88
2021/06/01 00:11:42;;;;;;;2.50;2.30;;;;;;;12.58;59.31;93541.19;4960631;28;20443;-88
2021/06/01 00:14:08;;;;;;;2.60;2.40;;;;;;;12.48;59.47;93526.34;4964495;28;20073;-91
2021/06/01 00:16:34;;;;;;;6.45;3.25;;;;;;;12.54;59.17;93519.81;4977078;28;20053;-86
2021/06/01 00:19:00;;;;;;;3.03;2.72;;;;;;;12.47;59.67;93510.75;4981946;28;20069;-90
2021/06/01 00:21:25;;;;;;;2.50;2.28;;;;;;;12.55;59.70;93512.66;4980069;28;20543;-88
2021/06/01 00:23:54;;;;;;;2.97;2.70;;;;;;;12.59;59.91;93519.69;4976081;28;20458;-89
2021/06/01 00:26:20;;;;;;;2.92;2.65;;;;;;;12.58;60.21;93502.22;4981732;28;20478;-85
2021/06/01 00:28:46;;;;;;;2.88;2.67;;;;;;;12.63;60.21;93503.16;4979896;28;20569;-89
2021/06/01 00:31:12;;;;;;;3.20;2.70;;;;;;;12.72;60.08;93507.41;4978761;28;20117;-88
2021/06/01 00:33:38;;;;;;;3.70;3.20;;;;;;;12.72;60.19;93507.41;4992007;28;20052;-87
2021/06/01 00:36:04;;;;;;;3.40;3.10;;;;;;;12.75;60.23;93498.06;4970903;28;20381;-86
2021/06/01 00:38:29;;;;;;;3.00;2.80;;;;;;;12.78;59.74;93497.44;4966746;28;20057;-85
2021/06/01 00:40:56;;;;;;;3.03;2.83;;;;;;;12.65;59.48;93480.56;4982516;28;20050;-87
2021/06/01 00:43:23;;;;;;;3.95;3.22;;;;;;;12.59;60.44;93493.19;4979189;28;20603;-88
2021/06/01 00:45:48;;;;;;;4.85;4.18;;;;;;;12.55;60.49;93489.59;4981540;28;20058;-91
2021/06/01 00:48:14;;;;;;;3.55;3.25;;;;;;;12.59;60.70;93487.88;4966506;28;20542;-88
2021/06/01 00:50:39;;;;;;;4.18;3.78;;;;;;;12.59;60.62;93481.78;4960533;28;20035;-89
2021/06/01 00:53:07;;;;;;;3.97;3.67;;;;;;;12.69;60.46;93486.03;4958289;28;20480;-88
2021/06/01 00:55:33;;;;;;;3.97;3.67;;;;;;;12.73;60.41;93487.75;4958944;28;21130;-86
2021/06/01 00:57:58;;;;;;;2.53;2.13;;;;;;;12.61;58.94;93479.59;4957124;28;20430;-82
2021/06/01 01:02:56;;;;;;;5.25;3.42;;;;;;;12.39;59.43;93474.41;4972413;28;20136;-87
2021/06/01 01:05:26;;;;;;;4.15;3.85;;;;;;;12.40;60.25;93487.34;4979698;28;20042;-86
2021/06/01 01:08:31;;;;;;;5.80;5.22;;;;;;;12.22;61.97;93479.66;4980341;28;20033;-85
2021/06/01 01:11:06;;;;;;;6.63;6.03;;;;;;;12.27;63.17;93482.94;4976782;28;20042;-86
2021/06/01 01:13:40;;;;;;;5.90;5.30;;;;;;;12.32;62.65;93503.97;4980966;28;20026;-89
2021/06/01 01:16:06;;;;;;;6.90;6.20;;;;;;;12.36;62.92;93496.22;4969415;28;20047;-87
2021/06/01 01:18:34;;;;;;;7.18;6.47;;;;;;;12.37;63.33;93498.56;4977781;28;20037;-90
2021/06/01 01:21:14;;;;;;;7.88;7.18;;;;;;;12.40;63.00;93487.34;4980352;28;20046;-87
2021/06/01 01:23:47;;;;;;;7.90;7.10;;;;;;;12.54;62.75;93485.38;4979013;28;20030;-87
2021/06/01 01:26:34;;;;;;;6.80;6.10;;;;;;;12.61;62.05;93489.44;4979574;28;20093;-88
2021/06/01 01:29:14;;;;;;;7.65;6.68;;;;;;;12.64;61.06;93479.00;4978812;28;20117;-88
2021/06/01 01:31:47;;;;;;;7.70;7.00;;;;;;;12.73;62.66;93489.63;4980519;28;20030;-87
2021/06/01 01:34:15;;;;;;;8.82;7.93;;;;;;;12.80;63.60;93493.41;4980042;28;20583;-86
2021/06/01 01:36:42;;;;;;;8.02;7.22;;;;;;;12.89;64.75;93490.75;4991430;28;20050;-87
2021/06/01 01:39:10;;;;;;;9.40;8.48;;;;;;;12.81;66.11;93478.25;4988886;28;20050;-87
2021/06/01 01:41:37;;;;;;;8.32;7.45;;;;;;;12.74;66.29;93488.53;4978274;28;21113;-83
2021/06/01 01:44:10;;;;;;;8.25;7.47;;;;;;;12.82;68.48;93483.25;4975797;28;20094;-87
2021/06/01 01:49:12;;;;;;;7.80;7.10;;;;;;;12.75;66.87;93485.59;4960296;28;20035;-84
2021/06/01 01:51:44;;;;;;;5.53;5.03;;;;;;;12.57;66.10;93478.66;4953003;28;20427;-89
2021/06/01 01:54:17;;;;;;;7.00;6.30;;;;;;;12.58;66.11;93481.00;4959035;28;20523;-89
2021/06/01 01:56:46;;;;;;;6.97;6.28;;;;;;;12.64;66.75;93472.91;4960393;28;20078;-88
2021/06/01 01:59:18;;;;;;;6.75;6.13;;;;;;;12.54;66.67;93479.28;4963373;28;20038;-88
2021/06/01 02:01:47;;;;;;;6.63;6.03;;;;;;;12.61;65.83;93482.25;4975313;28;20030;-88
2021/06/01 02:04:15;;;;;;;7.28;6.60;;;;;;;12.62;66.93;93483.81;4980799;28;20026;-88
2021/06/01 02:06:40;;;;;;;6.28;5.68;;;;;;;12.62;64.35;93467.13;4963334;28;20418;-89
2021/06/01 02:09:09;;;;;;;6.30;5.70;;;;;;;12.65;64.31;93477.13;4959234;28;20038;-86
2021/06/01 02:11:35;;;;;;;6.00;5.40;;;;;;;12.61;64.17;93468.25;4958564;28;20089;-85
2021/06/01 02:14:03;;;;;;;5.40;4.90;;;;;;;12.57;62.90;93468.84;4961569;28;20274;-89
2021/06/01 02:16:30;;;;;;;5.15;4.70;;;;;;;12.66;63.95;93463.56;4979433;28;20041;-86
2021/06/01 02:18:56;;;;;;;5.53;4.95;;;;;;;12.57;63.23;93450.28;4961526;28;20061;-85
2021/06/01 02:21:23;;;;;;;4.80;4.30;;;;;;;12.62;63.28;93462.63;4955768;28;20047;-90
2021/06/01 02:24:00;;;;;;;4.68;4.28;;;;;;;12.55;63.90;93455.13;4958813;28;20475;-86
2021/06/01 02:26:42;;;;;;;5.10;4.60;;;;;;;12.61;63.88;93460.28;4961399;28;20056;-88
2021/06/01 02:30:00;;;;;;;5.50;5.00;;;;;;;12.67;64.81;93477.59;4994751;28;20035;-90
2021/06/01 02:32:33;;;;;;;5.75;5.07;;;;;;;12.69;64.30;93470.13;4973830;28;20078;-89
2021/06/01 02:35:04;;;;;;;4.32;3.92;;;;;;;12.49;64.35;93469.59;4979370;28;20035;-90
2021/06/01 02:37:30;;;;;;;4.57;4.18;;;;;;;12.38;65.49;93478.91;4977865;28;20034;-88
2021/06/01 02:39:56;;;;;;;5.82;5.22;;;;;;;12.41;66.69;93470.34;4978514;28;20741;-88
2021/06/01 02:42:23;;;;;;;5.38;4.88;;;;;;;12.39;66.80;93477.84;4976504;28;20046;-85
2021/06/01 02:44:50;;;;;;;5.70;5.18;;;;;;;12.39;67.66;93477.06;4992009;28;20100;-88
2021/06/01 02:47:17;;;;;;;6.00;5.40;;;;;;;12.43;67.55;93484.09;4973401;28;20054;-82
2021/06/01 02:49:44;;;;;;;8.23;5.57;;;;;;;12.43;68.48;93478.78;4979351;28;20034;-89
2021/06/01 02:52:09;;;;;;;6.97;6.28;;;;;;;12.49;68.99;93484.72;4979994;28;20026;-86
2021/06/01 02:54:35;;;;;;;5.75;5.15;;;;;;;12.47;68.89;93490.31;4977317;28;20064;-86
2021/06/01 02:57:01;;;;;;;5.40;5.00;;;;;;;12.49;69.81;93477.56;4976527;28;20053;-88
2021/06/01 02:59:27;;;;;;;6.35;5.75;;;;;;;12.50;70.71;93478.34;4978665;28;20048;-86
2021/06/01 03:01:53;;;;;;;5.75;5.20;;;;;;;12.49;71.14;93482.88;4976998;28;20026;-86
2021/06/01 03:04:18;;;;;;;6.28;5.68;;;;;;;12.49;70.58;93482.06;4977070;28;20023;-86
2021/06/01 03:06:44;;;;;;;6.60;6.00;;;;;;;12.40;71.33;93478.63;4977514;28;20502;-87
2021/06/01 03:09:11;;;;;;;6.82;6.20;;;;;;;12.52;71.92;93487.53;4977810;28;20114;-86
2021/06/01 03:11:37;;;;;;;6.80;6.07;;;;;;;12.57;72.27;93487.41;4976905;28;20034;-87
2021/06/01 03:14:04;;;;;;;8.15;7.35;;;;;;;12.59;72.95;93487.09;4972495;28;20044;-87
2021/06/01 03:16:30;;;;;;;7.78;7.03;;;;;;;12.66;72.68;93489.31;4980486;28;20077;-87
2021/06/01 03:18:55;;;;;;;6.47;5.80;;;;;;;12.69;72.15;93481.50;4976067;28;20459;-89
2021/06/01 03:21:21;;;;;;;5.55;5.00;;;;;;;12.56;72.83;93493.00;4974894;28;20554;-89
2021/06/01 03:23:47;;;;;;;6.13;5.32;;;;;;;12.49;72.27;93474.91;4973584;28;20046;-87
2021/06/01 03:26:13;;;;;;;5.30;4.22;;;;;;;12.44;72.38;93480.34;4974422;28;20451;-89
2021/06/01 03:28:39;;;;;;;4.22;3.80;;;;;;;12.34;72.57;93470.03;4957427;28;20046;-89
2021/06/01 03:31:06;;;;;;;3.85;3.55;;;;;;;12.34;72.68;93464.72;4961427;28;20122;-89
2021/06/01 03:33:33;;;;;;;4.32;3.92;;;;;;;12.37;72.33;93473.91;4972566;28;20030;-85
2021/06/01 03:35:58;;;;;;;4.45;4.05;;;;;;;12.36;73.78;93483.75;4975477;28;20058;-91
2021/06/01 03:38:25;;;;;;;4.82;3.47;;;;;;;12.42;73.75;93487.81;4977577;28;20035;-90
2021/06/01 03:40:51;;;;;;;5.60;4.25;;;;;;;12.50;73.25;93489.72;4977381;28;20434;-91
2021/06/01 03:43:16;;;;;;;4.32;3.92;;;;;;;12.55;73.77;93492.25;4977662;28;20411;-89
2021/06/01 03:45:42;;;;;;;4.55;3.35;;;;;;;12.50;73.06;93489.72;4973772;28;20108;-91
2021/06/01 03:48:08;;;;;;;3.30;3.00;;;;;;;12.37;71.20;93490.59;4975003;28;20077;-90
2021/06/01 03:50:34;;;;;;;4.10;3.55;;;;;;;12.34;70.03;93485.94;4976791;28;20075;-90
2021/06/01 03:53:01;;;;;;;3.08;2.78;;;;;;;12.29;69.61;93491.34;4972367;28;20043;-88
2021/06/01 03:55:26;;;;;;;3.10;2.90;;;;;;;12.15;69.44;93466.84;4975482;28;20446;-90
2021/06/01 03:57:52;;;;;;;3.88;3.58;;;;;;;12.43;69.39;93485.94;4969071;28;20129;-88
2021/06/01 04:00:23;;;;;;;3.75;3.38;;;;;;;12.38;68.81;93481.56;4975944;28;20117;-89
2021/06/01 04:02:49;;;;;;;3.70;3.40;;;;;;;12.47;68.80;93482.38;4975622;28;20057;-89
2021/06/01 04:05:15;;;;;;;4.30;3.90;;;;;;;12.62;69.62;93483.03;4975632;28;20403;-89
2021/06/01 04:07:41;;;;;;;3.63;3.33;;;;;;;12.70;68.79;93477.00;4974841;28;20404;-88
2021/06/01 04:10:07;;;;;;;4.45;4.03;;;;;;;12.74;69.41;93480.59;4975369;28;20041;-87
2021/06/01 04:12:33;;;;;;;4.15;3.75;;;;;;;12.77;68.29;93474.66;4973515;28;20770;-88
2021/06/01 04:14:59;;;;;;;3.85;3.47;;;;;;;12.72;68.35;93474.78;4967419;28;20491;-86
2021/06/01 04:17:24;;;;;;;3.88;3.47;;;;;;;12.83;68.34;93476.06;4960340;28;20539;-89
2021/06/01 04:19:49;;;;;;;4.68;4.13;;;;;;;12.84;69.04;93473.13;4950014;28;20046;-88
2021/06/01 04:22:15;;;;;;;4.13;3.72;;;;;;;12.79;67.87;93461.88;4956066;28;20404;-89
2021/06/01 04:24:41;;;;;;;4.68;4.20;;;;;;;12.85;68.96;93474.66;4949496;28;20042;-90
2021/06/01 04:27:07;;;;;;;4.43;3.90;;;;;;;12.84;69.05;93469.69;4966139;28;20411;-89
2021/06/01 04:29:32;;;;;;;4.78;4.38;;;;;;;12.76;68.31;93457.19;4989836;28;20069;-90
2021/06/01 04:31:58;;;;;;;5.18;4.68;;;;;;;12.78;68.87;93462.97;4972787;28;20141;-88
2021/06/01 04:34:23;;;;;;;4.38;3.97;;;;;;;12.82;68.93;93463.91;4977168;28;20064;-91
2021/06/01 04:36:49;;;;;;;4.80;4.40;;;;;;;12.78;68.56;93474.34;4974201;28;20672;-89
2021/06/01 04:39:14;;;;;;;4.85;3.90;;;;;;;12.77;69.98;93466.69;4972927;28;20103;-89
2021/06/01 04:41:40;;;;;;;4.60;4.15;;;;;;;12.64;71.52;93446.41;4973240;28;20042;-87
2021/06/01 04:44:06;;;;;;;5.35;4.85;;;;;;;12.76;71.92;93460.59;4979253;28;20129;-86
2021/06/01 04:46:35;;;;;;;5.47;4.97;;;;;;;12.84;72.79;93467.03;4978791;28;20034;-91
2021/06/01 04:49:01;;;;;;;5.50;4.85;;;;;;;12.93;72.03;93475.78;4978435;28;20160;-92
2021/06/01 04:51:26;;;;;;;5.43;4.60;;;;;;;12.90;71.81;93465.81;4972314;28;20124;-85
2021/06/01 04:53:54;;;;;;;4.53;4.13;;;;;;;12.91;72.41;93468.13;4977969;28;20029;-88
2021/06/01 04:56:21;;;;;;;4.07;3.67;;;;;;;13.02;71.33;93468.59;4977113;28;20065;-89
2021/06/01 04:58:46;;;;;;;3.45;3.15;;;;;;;12.97;68.95;93450.19;4978119;28;20038;-87
2021/06/01 05:01:11;;;;;;;3.38;2.70;;;;;;;12.99;66.72;93464.72;4982064;28;20383;-89
2021/06/01 05:03:38;;;;;;;4.03;2.97;;;;;;;12.90;65.42;93465.81;4977886;28;20510;-90
2021/06/01 05:06:05;;;;;;;3.10;2.80;;;;;;;12.80;65.64;93464.22;4977920;28;20038;-90
2021/06/01 05:08:30;;;;;;;3.53;3.22;;;;;;;12.82;66.23;93469.19;4978779;28;20137;-88
2021/06/01 05:10:55;;;;;;;4.60;3.22;;;;;;;12.71;66.95;93442.19;4980610;28;20381;-89
2021/06/01 05:13:21;;;;;;;3.20;2.90;;;;;;;12.90;67.45;93479.06;4977295;28;20438;-90
2021/06/01 05:15:48;;;;;;;3.92;2.88;;;;;;;12.70;68.00;93475.13;4980597;28;20109;-92
2021/06/01 05:18:14;;;;;;;4.18;3.55;;;;;;;12.66;69.45;93470.75;4994865;28;20041;-89
2021/06/01 05:20:40;;;;;;;4.53;3.35;;;;;;;12.69;69.25;93476.22;4978636;28;20043;-90
2021/06/01 05:23:05;;;;;;;5.13;3.63;;;;;;;12.56;69.82;93446.06;4977074;28;20062;-90
2021/06/01 05:25:31;;;;;;;3.72;3.42;;;;;;;12.81;69.94;93483.53;4983029;28;20073;-91
2021/06/01 05:27:56;;;;;;;5.78;3.60;;;;;;;12.81;70.15;93467.63;4979039;28;20046;-93
2021/06/01 05:30:30;;;;;;;4.15;3.47;;;;;;;12.98;69.16;93472.97;4980240;28;20065;-91
2021/06/01 05:35:26;;;;;;;3.13;2.85;;;;;;;13.07;67.62;93465.03;4979514;28;20034;-89
2021/06/01 05:37:52;;;;;;;3.40;3.10;;;;;;;13.24;67.87;93481.00;4980474;28;20014;-90
2021/06/01 05:40:18;;;;;;;3.38;3.08;;;;;;;13.38;66.97;93471.78;4982942;28;20022;-89
2021/06/01 05:42:43;;;;;;;4.53;3.15;;;;;;;13.60;67.38;93478.00;4966567;28;20660;-89
2021/06/01 05:45:09;;;;;;;3.80;3.33;;;;;;;13.66;65.17;93460.81;4978680;28;20569;-89
2021/06/01 05:47:35;;;;;;;2.90;2.70;;;;;;;13.86;65.53;93473.44;4979448;28;20092;-90
2021/06/01 05:50:01;;;;;;;3.40;3.10;;;;;;;13.96;64.92;93474.97;4977749;28;20154;-88
2021/06/01 05:52:26;;;;;;;4.30;2.90;;;;;;;14.01;64.33;93470.25;4978756;28;20032;-90
2021/06/01 05:54:51;;;;;;;3.38;2.85;;;;;;;14.17;64.13;93479.25;4980757;28;20053;-90
2021/06/01 05:57:17;;;;;;;3.05;2.72;;;;;;;14.28;64.13;93482.34;4976811;28;20538;-88
2021/06/01 05:59:42;;;;;;;3.88;3.40;;;;;;;14.28;63.37;93472.50;4976433;28;20047;-91
2021/06/01 06:02:08;;;;;;;4.07;3.13;;;;;;;14.35;64.44;93465.91;4979856;28;20042;-91
2021/06/01 06:04:33;;;;;;;3.60;2.88;;;;;;;14.36;63.38;93470.13;4980629;28;20092;-89
2021/06/01 06:06:59;;;;;;;4.50;2.92;;;;;;;14.47;62.42;93469.47;4980522;28;20572;-89
2021/06/01 06:09:24;;;;;;;3.10;2.80;;;;;;;14.56;62.25;93466.81;4972703;28;20045;-90
2021/06/01 06:11:50;;;;;;;2.85;2.65;;;;;;;14.64;63.07;93463.31;4978811;28;20058;-90
2021/06/01 06:14:15;;;;;;;2.60;2.40;;;;;;;14.85;62.32;93458.81;4979143;28;20096;-84
2021/06/01 06:16:46;;;;;;;2.50;2.30;;;;;;;14.96;61.97;93459.97;4979915;28;20092;-90
2021/06/01 06:19:12;;;;;;;3.88;3.58;;;;;;;15.10;62.82;93468.47;4979593;28;20439;-88
2021/06/01 06:21:37;;;;;;;3.80;3.50;;;;;;;15.25;63.11;93469.03;4975143;28;20129;-90
2021/06/01 06:24:05;;;;;;;3.42;3.13;;;;;;;15.21;62.17;93470.75;4972834;28;20057;-90
2021/06/01 06:26:31;;;;;;;3.65;3.28;;;;;;;15.19;61.47;93457.78;4980104;28;20404;-82
2021/06/01 06:28:57;;;;;;;2.95;2.75;;;;;;;15.22;61.29;93470.44;4977599;28;20049;-88
2021/06/01 06:31:22;;;;;;;4.15;3.60;;;;;;;15.30;60.66;93468.81;4981746;28;20026;-90
2021/06/01 06:33:48;;;;;;;3.38;2.88;;;;;;;15.26;60.16;93465.25;4975236;28;20038;-89
2021/06/01 06:36:13;;;;;;;4.00;2.53;;;;;;;15.31;58.54;93481.00;4965224;28;20065;-89
2021/06/01 06:38:39;;;;;;;3.45;2.92;;;;;;;15.40;59.40;93473.75;4962044;28;20408;-88
2021/06/01 06:43:30;;;;;;;5.03;3.13;;;;;;;15.11;58.83;93461.28;4959950;28;20688;-86
2021/06/01 06:45:55;;;;;;;2.97;2.67;;;;;;;15.20;58.56;93475.28;4959869;28;20080;-89
2021/06/01 06:48:21;;;;;;;3.95;3.10;;;;;;;15.24;59.49;93467.47;4973941;28;20046;-86
2021/06/01 06:50:47;;;;;;;3.08;2.50;;;;;;;15.17;58.51;93470.63;4969673;28;20034;-90
2021/06/01 06:53:14;;;;;;;3.85;2.75;;;;;;;15.25;58.26;93477.00;4985149;28;20530;-88
2021/06/01 06:55:40;;;;;;;3.25;2.95;;;;;;;15.28;57.14;93476.34;4976844;28;20018;-89
2021/06/01 06:58:05;;;;;;;2.45;2.00;;;;;;;15.10;56.74;93473.81;4981256;28;20028;-88
2021/06/01 07:00:31;;;;;;;2.47;2.17;;;;;;;15.08;56.03;93472.59;4976739;28;20518;-91
2021/06/01 07:02:56;;;;;;;2.35;2.10;;;;;;;15.25;56.52;93479.69;4976653;28;20125;-86
2021/06/01 07:05:22;;;;;;;2.05;1.85;;;;;;;15.48;56.32;93480.91;4988191;28;20034;-90
2021/06/01 07:07:51;;;;;;;2.28;1.95;;;;;;;15.58;55.81;93475.19;4979458;28;20022;-87
2021/06/01 07:10:17;;;;;;;4.18;2.03;;;;;;;15.56;55.15;93477.41;4978342;28;20026;-93
2021/06/01 07:12:44;;;;;;;1.80;1.70;;;;;;;15.23;55.39;93473.88;4978520;28;20038;-88
2021/06/01 07:15:21;;;;;;;3.10;2.10;;;;;;;15.65;55.66;93480.75;4977352;28;20044;-91
2021/06/01 07:17:52;;;;;;;2.55;2.30;;;;;;;15.90;54.60;93471.75;4973139;28;20234;-87
2021/06/01 07:20:18;;;;;;;3.67;2.00;;;;;;;16.21;53.48;93475.81;4971667;28;20132;-88
2021/06/01 07:22:44;;;;;;;4.88;1.90;;;;;;;16.74;52.85;93477.56;4977182;28;20051;-90
2021/06/01 07:25:10;;;;;;;2.08;1.88;;;;;;;16.92;52.49;93472.75;4974345;28;20018;-89
2021/06/01 07:27:37;;;;;;;2.10;1.90;;;;;;;17.17;51.66;93476.97;4976131;28;20049;-89
2021/06/01 07:30:05;;;;;;;2.28;1.85;;;;;;;17.17;51.89;93484.97;4991080;28;20162;-89
2021/06/01 07:32:30;;;;;;;2.28;1.98;;;;;;;17.15;51.07;93479.19;4974168;28;20042;-89
2021/06/01 07:34:57;;;;;;;2.20;1.75;;;;;;;17.57;51.37;93487.66;4972914;28;20061;-89
2021/06/01 07:37:22;;;;;;;1.95;1.73;;;;;;;17.83;50.24;93490.72;4977886;28;20558;-92
2021/06/01 07:39:48;;;;;;;2.95;1.95;;;;;;;17.63;50.26;93487.13;4989565;28;20066;-90
2021/06/01 07:42:13;;;;;;;2.35;2.13;;;;;;;17.61;49.45;93485.88;4976560;28;20039;-84
2021/06/01 07:44:39;;;;;;;2.40;2.20;;;;;;;17.17;49.66;93447.59;4976699;28;20031;-90
2021/06/01 07:47:05;;;;;;;5.70;1.95;;;;;;;17.61;50.31;93480.53;4975626;28;20045;-89
2021/06/01 07:49:30;;;;;;;2.63;2.42;;;;;;;17.61;49.82;93446.59;4973620;28;20491;-87
2021/06/01 07:51:56;;;;;;;2.20;2.00;;;;;;;17.98;48.77;93457.13;4973204;28;20042;-90
2021/06/01 07:54:24;;;;;;;2.50;2.28;;;;;;;18.03;47.56;93478.25;4971237;28;20046;-90
2021/06/01 07:56:50;;;;;;;3.58;2.50;;;;;;;18.01;48.36;93475.91;4993203;28;20487;-90
2021/06/01 07:59:16;;;;;;;3.20;2.72;;;;;;;17.94;48.69;93469.59;4972637;28;20050;-84
2021/06/01 08:01:47;;;;;;;3.67;2.53;;;;;;;17.66;49.10;93481.09;4956272;28;20045;-86
2021/06/01 08:04:13;;;;;;;3.65;3.30;;;;;;;17.43;49.33;93482.69;4979176;28;20031;-89
2021/06/01 08:06:38;;;;;;;3.70;3.40;;;;;;;17.70;49.62;93479.28;4956463;28;20077;-92
2021/06/01 08:09:10;;;;;;;4.85;3.25;;;;;;;18.35;48.46;93477.16;4981226;28;20062;-93
2021/06/01 08:11:38;;;;;;;3.63;2.95;;;;;;;19.28;48.53;93480.91;4961657;28;20057;-86
2021/06/01 08:14:07;;;;;;;3.58;3.17;;;;;;;19.58;46.36;93465.09;4973260;28;20046;-80
2021/06/01 08:16:33;;;;;;;3.65;3.35;;;;;;;19.94;46.76;93481.91;4979358;28;20033;-78
2021/06/01 08:19:15;;;;;;;3.10;2.80;;;;;;;19.82;45.07;93485.50;4977832;28;20046;-78
2021/06/01 08:21:53;;;;;;;4.57;3.03;;;;;;;19.29;46.55;93495.88;4976422;28;20086;-78
2021/06/01 08:24:24;;;;;;;4.18;3.75;;;;;;;18.66;49.20;93502.44;4962724;28;20058;-81
2021/06/01 08:26:50;;;;;;;5.72;4.18;;;;;;;18.39;50.63;93495.97;4944504;28;20129;-81
2021/06/01 08:29:16;;;;;;;4.95;4.53;;;;;;;18.39;51.54;93491.41;4979867;28;20042;-82
2021/06/01 08:31:42;;;;;;;8.52;4.80;;;;;;;18.63;50.58;93490.50;4977458;28;20113;-79
2021/06/01 08:34:07;;;;;;;4.15;3.75;;;;;;;18.46;50.95;93486.25;4978547;28;20015;-79
2021/06/01 08:36:33;;;;;;;4.68;4.22;;;;;;;18.49;50.92;93495.47;4963168;28;20047;-79
2021/06/01 08:38:59;;;;;;;8.30;4.80;;;;;;;18.45;51.01;93502.63;4956022;28;20543;-83
2021/06/01 08:41:24;;;;;;;5.60;5.10;;;;;;;18.18;51.21;93499.66;4956453;28;20033;-81
2021/06/01 08:43:53;;;;;;;5.70;5.20;;;;;;;18.43;52.28;93502.19;4986956;28;20100;-81
2021/06/01 08:46:26;;;;;;;5.18;4.68;;;;;;;18.17;51.46;93495.44;4997512;28;20034;-81
2021/06/01 08:48:52;;;;;;;4.63;4.22;;;;;;;18.23;52.20;93503.22;4957257;28;20051;-82
2021/06/01 08:51:22;;;;;;;5.10;4.50;;;;;;;18.67;51.71;93495.97;4971100;28;20491;-85
2021/06/01 08:53:49;;;;;;;5.28;4.88;;;;;;;18.84;50.80;93506.28;4973917;28;20120;-80
2021/06/01 08:56:15;;;;;;;4.80;4.40;;;;;;;18.82;50.13;93506.63;4983588;28;20046;-79
2021/06/01 08:58:47;;;;;;;5.85;4.53;;;;;;;19.12;49.18;93490.09;4978395;28;20068;-79
2021/06/01 09:01:13;;;;;;;3.70;3.40;;;;;;;19.19;47.99;93496.41;4981998;28;20038;-78
2021/06/01 09:03:49;;;;;;;3.55;3.25;;;;;;;19.52;47.45;93481.81;4977865;28;20451;-80
2021/06/01 09:06:25;;;;;;;3.70;3.35;;;;;;;20.48;46.05;93485.19;4974285;28;20046;-79
2021/06/01 09:09:37;;;;;;;4.07;2.92;;;;;;;20.88;44.92;93486.63;4966254;28;20038;-79
2021/06/01 09:23:03;;;;;;;3.00;2.70;;;;;;;19.36;45.43;93501.38;4965181;28;20054;-79
2021/06/01 09:25:47;;;;;;;4.20;3.10;;;;;;;19.34;47.09;93506.31;4978342;28;20022;-83
2021/06/01 09:28:14;;;;;;;5.75;3.63;;;;;;;18.94;48.27;93495.06;4979034;28;20046;-82
2021/06/01 09:30:45;;;;;;;3.90;3.50;;;;;;;18.35;47.28;93481.75;4976379;28;20118;-82
2021/06/01 09:33:20;;;;;;;4.28;3.75;;;;;;;17.84;49.34;93497.59;4979327;28;20045;-87
2021/06/01 09:36:02;;;;;;;10.02;3.90;;;;;;;17.69;49.91;93501.78;4975517;28;20050;-82
2021/06/01 09:38:29;;;;;;;4.38;3.97;;;;;;;17.41;49.82;93492.94;4976451;28;20038;-83
2021/06/01 09:41:18;;;;;;;4.57;4.18;;;;;;;17.82;49.93;93489.16;4977948;28;20148;-85
2021/06/01 09:44:06;;;;;;;3.58;3.28;;;;;;;18.20;49.11;93488.63;4968402;28;20034;-80
2021/06/01 09:46:36;;;;;;;3.20;3.00;;;;;;;18.62;49.12;93488.94;4978080;28;20573;-79
2021/06/01 09:49:14;;;;;;;5.03;3.55;;;;;;;19.07;48.30;93485.78;4977914;28;20134;-81
2021/06/01 09:51:41;;;;;;;3.67;3.33;;;;;;;18.98;46.17;93487.88;4972398;28;20069;-82
2021/06/01 09:54:34;;;;;;;3.88;3.58;;;;;;;18.77;47.22;93484.69;4976615;28;20049;-80
2021/06/01 09:57:02;;;;;;;4.15;3.75;;;;;;;18.98;47.78;93474.50;4977368;28;20050;-80
2021/06/01 09:59:28;;;;;;;4.78;3.38;;;;;;;19.20;46.61;93497.19;4976575;28;20156;-79
2021/06/01 10:01:54;;;;;;;4.13;3.78;;;;;;;19.15;47.08;93495.56;4976164;28;20117;-82
2021/06/01 10:04:26;;;;;;;3.90;3.60;;;;;;;19.14;47.13;93494.00;4979610;28;20029;-80
2021/06/01 10:06:53;;;;;;;4.07;3.72;;;;;;;19.19;47.64;93477.66;4957525;28;20655;-81
2021/06/01 10:09:19;;;;;;;4.18;3.47;;;;;;;19.15;46.70;93494.78;4971544;28;20778;-83
2021/06/01 10:11:58;;;;;;;3.95;3.65;;;;;;;19.09;45.09;93485.44;4975731;28;20574;-82
2021/06/01 10:14:25;;;;;;;3.70;3.40;;;;;;;18.84;45.20;93479.53;4971462;28;20077;-78
2021/06/01 10:16:52;;;;;;;4.88;3.95;;;;;;;19.28;46.57;93472.88;4973977;28;20129;-78
2021/06/01 10:19:18;;;;;;;3.42;3.13;;;;;;;19.43;45.27;93464.00;4981503;28;20034;-79
2021/06/01 10:21:44;;;;;;;3.95;3.63;;;;;;;19.62;44.52;93465.94;4976367;28;20043;-79
2021/06/01 10:24:14;;;;;;;3.40;3.15;;;;;;;19.39;44.66;93470.44;4975340;28;20728;-79
2021/06/01 10:26:43;;;;;;;4.50;3.78;;;;;;;19.14;44.82;93475.25;4976240;28;20219;-79
2021/06/01 10:29:08;;;;;;;3.85;3.42;;;;;;;19.25;44.25;93462.09;4976648;28;20096;-80
2021/06/01 10:31:37;;;;;;;3.60;3.30;;;;;;;19.19;44.30;93464.25;4979884;28;20449;-81
2021/06/01 10:34:18;;;;;;;4.20;3.90;;;;;;;18.81;45.44;93462.28;4978489;28;20034;-79
2021/06/01 10:50:29;;;;;;;;;;;;;;;18.58;47.34;93478.16;4964922;28;20080;-80
2021/06/01 10:53:28;;;;;;;4.40;4.00;;;;;;;18.50;47.31;93471.06;4977757;28;20012;-83
2021/06/01 10:56:01;;;;;;;7.18;4.38;;;;;;;18.42;46.23;93485.38;4988937;28;20514;-79
2021/06/01 10:58:41;;;;;;;4.28;3.05;;;;;;;18.74;46.52;93494.22;4958343;28;20050;-78
2021/06/01 11:04:26;;;;;;;4.45;4.05;;;;;;;17.88;52.39;93506.50;4953313;28;20451;-81
2021/06/01 11:06:56;;;;;;;5.10;4.57;;;;;;;17.70;52.65;93502.56;4963659;28;20046;-79
2021/06/01 11:09:34;;;;;;;5.15;4.75;;;;;;;17.41;53.53;93497.47;4967988;28;20040;-79
2021/06/01 11:12:16;;;;;;;5.30;4.90;;;;;;;16.97;54.37;93496.56;4969373;28;20035;-78
2021/06/01 11:14:42;;;;;;;6.43;5.72;;;;;;;16.87;55.73;93484.44;4988226;28;20046;-81
2021/06/01 11:17:07;;;;;;;5.93;5.43;;;;;;;16.88;55.17;93478.78;4974004;28;20050;-79
2021/06/01 11:19:53;;;;;;;6.95;5.75;;;;;;;17.21;55.36;93483.16;4974422;28;20394;-81
2021/06/01 11:22:35;;;;;;;7.00;6.35;;;;;;;17.56;56.64;93481.53;4975881;28;20077;-79
2021/06/01 11:33:39;;;;;;;9.23;6.22;;;;;;;18.56;50.66;93495.69;4969212;28;20072;-79
2021/06/01 11:36:08;;;;;;;7.72;6.43;;;;;;;18.22;49.85;93477.59;4975014;28;20494;-82
2021/06/01 11:38:43;;;;;;;5.95;5.45;;;;;;;18.30;49.90;93498.81;4973943;28;20035;-81
2021/06/01 11:43:56;;;;;;;5.53;4.78;;;;;;;17.89;48.23;93499.25;4973848;28;20569;-78
2021/06/01 11:46:40;;;;;;;8.20;5.22;;;;;;;18.01;48.28;93499.19;4976809;28;20093;-82
2021/06/01 11:51:52;;;;;;;6.05;5.53;;;;;;;17.71;49.50;93499.53;4979226;28;20558;-82
2021/06/01 11:54:17;;;;;;;5.80;5.20;;;;;;;17.93;49.84;93487.56;4963541;28;20054;-80
2021/06/01 12:20:41;;;;;;;6.03;5.20;;;;;;;17.93;49.70;93526.88;4957995;28;20475;-78
2021/06/01 12:23:45;;;;;;;5.80;5.13;;;;;;;17.41;50.01;93511.63;4960846;28;20038;-81
2021/06/01 12:32:05;;;;;;;4.72;3.25;;;;;;;17.40;51.45;93523.41;4976229;28;20077;-78
2021/06/01 13:14:02;;;;;;;3.20;2.90;;;;;;;16.21;58.84;93561.13;4953895;28;20508;-78
2021/06/01 13:19:28;;;;;;;4.07;2.47;;;;;;;15.83;58.97;93546.09;4959244;28;20069;-81
2021/06/01 13:22:13;;;;;;;2.17;1.98;;;;;;;15.74;58.17;93540.06;4957131;28;20646;-81
2021/06/01 13:30:48;;;;;;;2.08;1.42;;;;;;;15.77;58.17;93565.28;4968628;28;20092;-79
2021/06/01 14:05:37;;;;;;;;;;;;;;;16.36;57.39;93595.19;4940480;28;20697;-88
2021/06/01 14:28:06;;;;;;;4.45;2.53;;;;;;;15.73;60.22;93588.38;4954003;28;20109;-87
2021/06/01 14:30:51;;;;;;;26.90;12.70;;;;;;;15.76;60.93;93583.16;4939757;28;20043;-88
2021/06/01 14:36:21;;;;;;;3.22;2.50;;;;;;;15.60;62.58;93612.25;4929386;28;20094;-89
2021/06/01 14:39:12;;;;;;;10.02;6.30;;;;;;;15.49;62.41;93604.97;4942179;28;20099;-88
2021/06/01 15:50:17;;;;;;;2.33;1.48;;;;;;;14.87;63.33;93637.50;4920209;28;20107;-91
2021/06/01 16:11:21;;;;;;;2.38;1.02;;;;;;;14.46;62.42;93629.34;4938404;28;20071;-88
2021/06/01 16:32:36;;;;;;;5.50;1.50;;;;;;;14.32;63.22;93651.50;4897433;29;20828;-89
2021/06/01 17:05:18;;;;;;;22.88;12.23;;;;;;;14.31;64.66;93699.69;4900982;29;20051;-89